Time;durP1;ratioP1;P1;durP2;ratioP2;P2;SDS_P1;SDS_P2;PMS_P1;PMS_P2;Temp;Humidity;BMP_temperature;BMP_pressure;BME280_temperature;BME280_humidity;BME280_pressure;Samples;Min_cycle;Max_cycle;Signal;HPM_P1;HPM_P2
2023/05/27 00:01:48;;;;;;;11.10;3.88;;;7.50;99.90;;;;;;5097327;28;20036;-79
2023/05/27 00:04:14;;;;;;;10.55;3.80;;;7.50;99.90;;;;;;5096185;28;20462;-80
2023/05/27 00:06:39;;;;;;;10.88;3.92;;;7.50;99.90;;;;;;5076031;28;20106;-80
2023/05/27 00:09:05;;;;;;;10.98;4.22;;;7.50;99.90;;;;;;5094144;28;20103;-80
2023/05/27 00:11:31;;;;;;;11.55;3.53;;;7.50;99.90;;;;;;5101417;28;20510;-80
2023/05/27 00:13:56;;;;;;;10.05;4.03;;;7.50;99.90;;;;;;5100657;28;20408;-80
2023/05/27 00:16:23;;;;;;;10.07;3.47;;;7.40;99.90;;;;;;5094885;28;20063;-80
2023/05/27 00:18:48;;;;;;;11.13;3.65;;;7.40;99.90;;;;;;5083134;28;20045;-80
2023/05/27 00:21:14;;;;;;;10.93;3.72;;;7.40;99.90;;;;;;5064375;28;20131;-81
2023/05/27 00:23:44;;;;;;;9.07;3.92;;;7.30;99.90;;;;;;5071733;28;20139;-81
2023/05/27 00:26:10;;;;;;;8.95;4.05;;;7.30;99.90;;;;;;5064372;28;20048;-81
2023/05/27 00:28:35;;;;;;;9.95;4.10;;;7.30;99.90;;;;;;5079364;28;20109;-81
2023/05/27 00:31:01;;;;;;;9.15;3.65;;;7.20;99.90;;;;;;5081904;28;20056;-81
2023/05/27 00:33:27;;;;;;;11.52;3.70;;;7.20;99.90;;;;;;5069354;28;20048;-81
2023/05/27 00:35:53;;;;;;;9.90;3.47;;;7.20;99.90;;;;;;5065943;28;20073;-81
2023/05/27 00:38:18;;;;;;;7.40;3.40;;;7.10;99.90;;;;;;5097966;28;20131;-81
2023/05/27 00:40:45;;;;;;;9.55;3.63;;;7.10;99.90;;;;;;5074524;28;20475;-81
2023/05/27 00:43:11;;;;;;;9.70;3.78;;;7.10;99.90;;;;;;5096957;28;20050;-81
2023/05/27 00:45:36;;;;;;;9.55;3.97;;;7.00;99.90;;;;;;5083367;28;20068;-81
2023/05/27 00:48:03;;;;;;;9.95;4.18;;;7.00;99.90;;;;;;5066582;28;20096;-81
2023/05/27 00:50:29;;;;;;;11.75;3.72;;;7.00;99.90;;;;;;5098047;28;20051;-81
2023/05/27 00:52:58;;;;;;;6.88;3.63;;;6.90;99.90;;;;;;5082979;28;20494;-81
2023/05/27 00:55:24;;;;;;;9.95;4.03;;;6.90;99.90;;;;;;5095950;28;20138;-81
2023/05/27 00:57:50;;;;;;;13.00;3.70;;;6.90;99.90;;;;;;5097948;28;20043;-81
2023/05/27 01:00:17;;;;;;;11.52;4.47;;;6.90;99.90;;;;;;5100350;28;20044;-81
2023/05/27 01:02:43;;;;;;;9.52;4.10;;;6.90;99.90;;;;;;5093208;28;20533;-81
2023/05/27 01:05:11;;;;;;;12.77;3.97;;;6.80;99.90;;;;;;5088683;28;20055;-81
2023/05/27 01:07:43;;;;;;;11.98;4.68;;;6.80;99.90;;;;;;5087742;28;20456;-81
2023/05/27 01:10:47;;;;;;;8.83;3.93;;;6.80;99.90;;;;;;5089211;28;20079;-80
2023/05/27 01:13:39;;;;;;;11.73;4.05;;;6.80;99.90;;;;;;5094142;28;20762;-81
2023/05/27 01:16:11;;;;;;;8.85;3.80;;;6.70;99.90;;;;;;5094180;28;20051;-81
2023/05/27 01:18:40;;;;;;;12.90;4.50;;;6.70;99.90;;;;;;5088107;28;20059;-80
2023/05/27 01:21:09;;;;;;;15.25;5.07;;;6.70;99.90;;;;;;5082847;28;20080;-81
2023/05/27 01:23:38;;;;;;;11.85;4.15;;;6.70;99.90;;;;;;5093044;28;20040;-81
2023/05/27 01:26:07;;;;;;;13.68;4.65;;;6.70;99.90;;;;;;5083328;28;20048;-81
2023/05/27 01:28:33;;;;;;;11.57;4.32;;;6.70;99.90;;;;;;5081110;28;20044;-81
2023/05/27 01:31:21;;;;;;;10.45;4.13;;;6.60;99.90;;;;;;5097644;28;20446;-81
2023/05/27 01:33:58;;;;;;;12.18;5.10;;;6.60;99.90;;;;;;5101944;28;20127;-81
2023/05/27 01:36:26;;;;;;;12.73;4.70;;;6.60;99.90;;;;;;5101316;28;20062;-81
2023/05/27 01:38:54;;;;;;;15.95;4.90;;;6.60;99.90;;;;;;5082643;28;20211;-81
2023/05/27 01:41:22;;;;;;;10.05;3.92;;;6.50;99.90;;;;;;5084307;28;20109;-80
2023/05/27 01:43:49;;;;;;;13.60;4.93;;;6.50;99.90;;;;;;5080961;28;20071;-80
2023/05/27 01:46:15;;;;;;;15.65;4.38;;;6.50;99.90;;;;;;5081296;28;20454;-81
2023/05/27 01:48:40;;;;;;;12.60;4.28;;;6.50;99.90;;;;;;5094464;28;20048;-81
2023/05/27 01:51:06;;;;;;;10.75;4.68;;;6.50;99.90;;;;;;5093752;28;20054;-81
2023/05/27 01:53:32;;;;;;;10.57;3.85;;;6.50;99.90;;;;;;5100031;28;20051;-81
2023/05/27 01:55:57;;;;;;;8.82;3.85;;;6.50;99.90;;;;;;5090168;28;20044;-81
2023/05/27 01:58:23;;;;;;;11.73;4.72;;;6.40;99.90;;;;;;5078430;28;20036;-81
2023/05/27 02:00:48;;;;;;;9.45;3.97;;;6.40;99.90;;;;;;5083159;28;20097;-81
2023/05/27 02:03:14;;;;;;;14.90;3.70;;;6.40;99.90;;;;;;5079617;28;20579;-81
2023/05/27 02:05:40;;;;;;;14.70;4.95;;;6.40;99.90;;;;;;5087751;28;20040;-81
2023/05/27 02:08:11;;;;;;;15.73;4.80;;;6.40;99.90;;;;;;5080196;28;20396;-81
2023/05/27 02:10:36;;;;;;;9.77;4.57;;;6.50;99.90;;;;;;5092479;28;20052;-80
2023/05/27 02:13:02;;;;;;;14.60;4.25;;;6.50;99.90;;;;;;5074046;28;20041;-81
2023/05/27 02:15:28;;;;;;;12.52;4.70;;;6.50;99.90;;;;;;5059607;28;20054;-81
2023/05/27 02:17:55;;;;;;;12.25;5.10;;;6.60;99.90;;;;;;5085330;28;20357;-81
2023/05/27 02:20:22;;;;;;;14.85;4.70;;;6.60;99.90;;;;;;5078166;28;20126;-80
2023/05/27 02:22:50;;;;;;;14.88;4.80;;;6.60;99.90;;;;;;5070324;28;20044;-80
2023/05/27 02:25:15;;;;;;;8.57;3.97;;;6.60;99.90;;;;;;5073387;28;20120;-81
2023/05/27 02:27:48;;;;;;;10.35;4.60;;;6.60;99.90;;;;;;5074762;28;20068;-81
2023/05/27 02:30:14;;;;;;;11.50;4.53;;;6.60;99.90;;;;;;5074409;28;20052;-80
2023/05/27 02:32:40;;;;;;;8.75;4.50;;;6.50;99.90;;;;;;5078418;28;20048;-81
2023/05/27 02:35:07;;;;;;;11.25;4.55;;;6.50;99.90;;;;;;5061633;28;20037;-81
2023/05/27 02:37:33;;;;;;;9.35;4.50;;;6.50;99.90;;;;;;5089820;28;20059;-81
2023/05/27 02:39:58;;;;;;;7.90;3.92;;;6.50;99.90;;;;;;5079593;28;20371;-80
2023/05/27 02:42:24;;;;;;;8.73;4.40;;;6.50;99.90;;;;;;5087932;28;20054;-81
2023/05/27 02:44:50;;;;;;;12.30;4.30;;;6.40;99.90;;;;;;5090905;28;20032;-81
2023/05/27 02:47:15;;;;;;;9.05;4.13;;;6.40;99.90;;;;;;5073791;28;20159;-81
2023/05/27 02:49:41;;;;;;;9.95;4.93;;;6.30;99.90;;;;;;5093350;28;20135;-80
2023/05/27 02:52:06;;;;;;;12.65;4.53;;;6.40;99.90;;;;;;5086889;28;20044;-81
2023/05/27 02:54:32;;;;;;;11.43;4.25;;;6.40;99.90;;;;;;5089539;28;20041;-80
2023/05/27 02:56:57;;;;;;;12.68;4.40;;;6.40;99.90;;;;;;5056896;28;20074;-81
2023/05/27 02:59:23;;;;;;;11.43;4.40;;;6.40;99.90;;;;;;5058784;28;20472;-81
2023/05/27 03:01:49;;;;;;;12.32;4.60;;;6.50;99.90;;;;;;5089360;28;20044;-81
2023/05/27 03:04:16;;;;;;;13.27;4.50;;;6.50;99.90;;;;;;5082330;28;20043;-81
2023/05/27 03:06:42;;;;;;;9.63;4.20;;;6.60;99.90;;;;;;5074704;28;20610;-80
2023/05/27 03:09:07;;;;;;;11.95;4.72;;;6.60;99.90;;;;;;5088115;28;20056;-80
2023/05/27 03:11:33;;;;;;;9.95;4.22;;;6.60;99.90;;;;;;5070995;28;20028;-80
2023/05/27 03:13:59;;;;;;;10.60;4.53;;;6.60;99.90;;;;;;5072093;28;20054;-81
2023/05/27 03:16:24;;;;;;;11.63;4.53;;;6.70;99.90;;;;;;5077744;28;20043;-81
2023/05/27 03:18:50;;;;;;;9.65;4.90;;;7.20;99.90;;;;;;5064896;28;20050;-81
2023/05/27 03:21:16;;;;;;;12.00;4.60;;;6.70;99.90;;;;;;5090352;28;20395;-81
2023/05/27 03:23:41;;;;;;;10.00;4.20;;;6.70;99.90;;;;;;5087919;28;20052;-79
2023/05/27 03:26:07;;;;;;;12.30;4.72;;;6.70;99.90;;;;;;5074092;28;20036;-80
2023/05/27 03:28:33;;;;;;;13.73;4.45;;;6.80;99.90;;;;;;5062814;28;20463;-81
2023/05/27 03:30:58;;;;;;;13.40;4.68;;;6.80;99.90;;;;;;5086784;28;20059;-80
2023/05/27 03:33:24;;;;;;;12.27;4.07;;;6.80;99.90;;;;;;5097019;28;20048;-80
2023/05/27 03:35:50;;;;;;;12.65;4.57;;;6.90;99.90;;;;;;5087664;28;20507;-80
2023/05/27 03:38:16;;;;;;;11.88;3.90;;;6.90;99.90;;;;;;5075518;28;20131;-80
2023/05/27 03:40:41;;;;;;;14.68;5.32;;;6.90;99.90;;;;;;5057273;28;20424;-80
2023/05/27 03:43:07;;;;;;;13.65;4.35;;;6.90;99.90;;;;;;5094926;28;20078;-80
2023/05/27 03:45:33;;;;;;;13.32;5.03;;;7.00;99.90;;;;;;5077763;28;20038;-79
2023/05/27 03:47:58;;;;;;;14.88;5.28;;;7.00;99.90;;;;;;5077418;28;20044;-80
2023/05/27 03:50:24;;;;;;;12.25;4.68;;;7.10;99.90;;;;;;5095188;28;20112;-80
2023/05/27 03:52:50;;;;;;;11.00;4.55;;;7.10;99.90;;;;;;5076963;28;20547;-81
2023/05/27 03:55:16;;;;;;;15.18;4.68;;;7.20;99.90;;;;;;5092291;28;20413;-80
2023/05/27 03:57:43;;;;;;;13.05;4.85;;;7.30;99.90;;;;;;5092541;28;20040;-82
2023/05/27 04:00:11;;;;;;;11.43;4.55;;;7.10;99.90;;;;;;5084402;28;20044;-82
2023/05/27 04:02:37;;;;;;;12.90;4.05;;;7.40;99.90;;;;;;5082426;28;20616;-81
2023/05/27 04:05:03;;;;;;;11.00;4.43;;;7.50;99.90;;;;;;5076812;28;20546;-81
2023/05/27 04:07:29;;;;;;;13.38;3.97;;;7.50;99.90;;;;;;5095802;28;20032;-79
2023/05/27 04:09:55;;;;;;;18.63;4.50;;;7.60;99.90;;;;;;5082060;28;20049;-81
2023/05/27 04:12:20;;;;;;;12.00;4.72;;;7.70;99.90;;;;;;5064928;28;20036;-81
2023/05/27 04:14:46;;;;;;;10.27;4.35;;;7.80;99.90;;;;;;5064539;28;20123;-81
2023/05/27 04:17:13;;;;;;;11.20;4.65;;;7.90;99.90;;;;;;5092654;28;20028;-81
2023/05/27 04:19:39;;;;;;;13.82;5.20;;;7.90;99.90;;;;;;5077501;28;20075;-81
2023/05/27 04:22:05;;;;;;;13.27;4.50;;;8.00;99.90;;;;;;5079537;28;20441;-81
2023/05/27 04:24:31;;;;;;;13.10;4.88;;;8.10;99.90;;;;;;5060974;28;20074;-81
2023/05/27 04:26:57;;;;;;;13.52;4.55;;;8.10;99.90;;;;;;5082902;28;20044;-81
2023/05/27 04:29:23;;;;;;;12.60;4.70;;;8.20;99.90;;;;;;5084334;28;20044;-80
2023/05/27 04:31:48;;;;;;;13.73;4.53;;;8.30;99.90;;;;;;5094354;28;20061;-81
2023/05/27 04:34:15;;;;;;;10.32;3.80;;;8.40;99.90;;;;;;5087617;28;20047;-80
2023/05/27 04:36:41;;;;;;;12.45;4.70;;;8.50;99.90;;;;;;5106198;28;20049;-81
2023/05/27 04:39:07;;;;;;;11.88;4.50;;;8.60;99.90;;;;;;5088443;28;20044;-81
2023/05/27 04:41:33;;;;;;;10.07;4.43;;;8.70;99.90;;;;;;5098472;28;20059;-81
2023/05/27 04:44:00;;;;;;;13.50;5.18;;;8.80;99.90;;;;;;5075701;28;20052;-80
2023/05/27 04:46:26;;;;;;;11.23;5.13;;;9.10;99.90;;;;;;5090354;28;20146;-82
2023/05/27 04:48:54;;;;;;;16.15;5.50;;;9.00;99.90;;;;;;5101175;28;20040;-79
2023/05/27 04:51:22;;;;;;;13.35;5.28;;;9.20;99.90;;;;;;5093657;28;20095;-81
2023/05/27 04:53:48;;;;;;;11.30;4.60;;;9.30;99.90;;;;;;5087899;28;20040;-81
2023/05/27 04:56:16;;;;;;;10.75;4.97;;;9.80;99.90;;;;;;5077305;28;20040;-81
2023/05/27 04:58:44;;;;;;;13.20;4.25;;;9.40;99.90;;;;;;5082989;28;20050;-82
2023/05/27 05:01:21;;;;;;;8.02;3.78;;;9.50;99.90;;;;;;5097458;28;20490;-81
2023/05/27 05:04:10;;;;;;;13.02;4.30;;;9.60;99.90;;;;;;5082837;28;20040;-81
2023/05/27 05:06:37;;;;;;;12.00;4.85;;;9.60;99.90;;;;;;5075737;28;20044;-81
2023/05/27 05:09:04;;;;;;;14.15;4.60;;;9.80;99.90;;;;;;5085490;28;20093;-81
2023/05/27 05:11:30;;;;;;;9.25;3.80;;;9.80;99.90;;;;;;5076797;28;20111;-80
2023/05/27 05:13:55;;;;;;;14.73;4.38;;;9.90;99.90;;;;;;5077903;28;20079;-80
2023/05/27 05:16:21;;;;;;;12.48;4.20;;;9.90;99.90;;;;;;5103404;28;20056;-80
2023/05/27 05:18:46;;;;;;;15.57;4.15;;;10.00;99.90;;;;;;5080278;28;20152;-81
2023/05/27 05:21:12;;;;;;;13.50;3.63;;;10.00;99.90;;;;;;5081203;28;20056;-81
2023/05/27 05:23:39;;;;;;;8.73;3.35;;;10.20;99.90;;;;;;5072534;28;20109;-81
2023/05/27 05:26:06;;;;;;;13.57;4.43;;;10.30;99.90;;;;;;5071168;28;20063;-81
2023/05/27 05:28:33;;;;;;;8.82;3.65;;;10.40;99.90;;;;;;5071468;28;20049;-81
2023/05/27 05:30:59;;;;;;;11.43;4.30;;;10.50;99.90;;;;;;5079447;28;20131;-81
2023/05/27 05:33:25;;;;;;;8.70;4.43;;;10.70;99.90;;;;;;5079786;28;20100;-81
2023/05/27 05:35:50;;;;;;;14.25;4.07;;;11.10;99.90;;;;;;5091559;28;20044;-80
2023/05/27 05:38:16;;;;;;;12.50;4.38;;;12.10;99.90;;;;;;5081338;28;20070;-81
2023/05/27 05:40:41;;;;;;;8.90;3.95;;;12.90;99.90;;;;;;5074500;28;20099;-81
2023/05/27 05:43:07;;;;;;;14.35;4.13;;;13.60;99.90;;;;;;5089086;28;20527;-81
2023/05/27 05:45:32;;;;;;;14.50;3.90;;;14.10;99.90;;;;;;5055187;28;20139;-81
2023/05/27 05:47:58;;;;;;;16.25;4.72;;;14.50;99.90;;;;;;5086632;28;20155;-80
2023/05/27 05:50:24;;;;;;;11.75;4.40;;;15.00;99.90;;;;;;5069267;28;20082;-80
2023/05/27 05:52:50;;;;;;;8.02;3.58;;;15.40;99.90;;;;;;5096632;28;20047;-82
2023/05/27 05:55:15;;;;;;;15.55;5.30;;;15.70;99.90;;;;;;5075191;28;20125;-81
2023/05/27 05:57:41;;;;;;;14.52;4.47;;;15.60;99.90;;;;;;5056664;28;20079;-81
2023/05/27 06:00:08;;;;;;;17.83;4.47;;;15.10;99.90;;;;;;5075053;28;20052;-81
2023/05/27 06:02:33;;;;;;;12.43;4.22;;;14.70;99.90;;;;;;5073500;28;20049;-82
2023/05/27 06:04:59;;;;;;;13.60;3.63;;;14.40;99.90;;;;;;5074397;28;20045;-81
2023/05/27 06:07:24;;;;;;;13.38;4.40;;;14.40;99.90;;;;;;5056134;28;20041;-81
2023/05/27 06:09:50;;;;;;;10.05;3.78;;;14.60;99.90;;;;;;5070486;28;20040;-81
2023/05/27 06:12:16;;;;;;;11.48;4.30;;;15.10;99.90;;;;;;5070975;28;20064;-81
2023/05/27 06:14:41;;;;;;;17.75;3.72;;;15.40;99.90;;;;;;5071769;28;20037;-81
2023/05/27 06:17:07;;;;;;;11.38;3.65;;;15.40;99.90;;;;;;5091187;28;20469;-81
2023/05/27 06:19:32;;;;;;;7.45;3.65;;;15.80;99.90;;;;;;5089319;28;20133;-81
2023/05/27 06:21:58;;;;;;;12.52;3.45;;;16.30;99.90;;;;;;5093177;28;20047;-81
2023/05/27 06:24:23;;;;;;;12.80;3.85;;;16.20;99.90;;;;;;5092234;28;20493;-82
2023/05/27 06:26:52;;;;;;;11.52;3.58;;;16.20;99.90;;;;;;5091741;28;20403;-82
2023/05/27 06:29:18;;;;;;;12.85;4.05;;;16.40;99.90;;;;;;5078421;28;20044;-82
2023/05/27 06:31:43;;;;;;;15.43;4.22;;;15.50;99.90;;;;;;5079317;28;20128;-81
2023/05/27 06:34:09;;;;;;;14.23;3.88;;;14.60;99.90;;;;;;5094228;28;20140;-82
2023/05/27 06:36:35;;;;;;;16.73;3.70;;;13.90;99.90;;;;;;5088836;28;20036;-82
2023/05/27 06:39:01;;;;;;;13.43;3.83;;;13.40;99.90;;;;;;5074819;28;20044;-82
2023/05/27 06:41:26;;;;;;;11.00;3.78;;;13.10;99.90;;;;;;5073503;28;20047;-82
2023/05/27 06:43:52;;;;;;;17.60;4.32;;;12.90;99.90;;;;;;5090344;28;20132;-82
2023/05/27 06:46:17;;;;;;;9.63;2.92;;;13.20;99.90;;;;;;5072816;28;20063;-82
2023/05/27 06:48:45;;;;;;;11.98;3.30;;;13.00;99.90;;;;;;5099160;28;20071;-82
2023/05/27 06:51:11;;;;;;;11.95;4.63;;;13.00;99.90;;;;;;5087267;28;20177;-82
2023/05/27 06:53:36;;;;;;;8.45;3.40;;;13.20;99.90;;;;;;5092831;28;20062;-82
2023/05/27 06:56:02;;;;;;;11.52;3.38;;;13.30;99.90;;;;;;5093325;28;20094;-82
2023/05/27 06:58:28;;;;;;;13.30;3.70;;;13.40;99.90;;;;;;5088848;28;20134;-82
2023/05/27 07:00:54;;;;;;;8.32;3.05;;;13.30;99.90;;;;;;5087989;28;20101;-81
2023/05/27 07:03:19;;;;;;;10.25;3.17;;;14.10;99.90;;;;;;5087550;28;20174;-81
2023/05/27 07:05:45;;;;;;;12.70;3.70;;;13.40;99.90;;;;;;5078427;28;20126;-82
2023/05/27 07:08:12;;;;;;;12.95;3.95;;;13.40;99.90;;;;;;5065901;28;20044;-81
2023/05/27 07:10:37;;;;;;;10.90;3.45;;;13.50;99.90;;;;;;5070211;28;20059;-81
2023/05/27 07:13:03;;;;;;;11.23;3.38;;;13.50;99.90;;;;;;5068162;28;20365;-81
2023/05/27 07:15:29;;;;;;;10.32;3.85;;;13.50;99.90;;;;;;5070006;28;20109;-82
2023/05/27 07:17:54;;;;;;;9.98;3.15;;;13.60;99.90;;;;;;5051329;28;20045;-81
2023/05/27 07:20:20;;;;;;;10.90;3.38;;;13.70;99.90;;;;;;5068513;28;20048;-82
2023/05/27 07:22:46;;;;;;;11.52;3.75;;;13.90;99.90;;;;;;5069679;28;20039;-82
2023/05/27 07:25:11;;;;;;;11.13;3.28;;;14.60;99.90;;;;;;5085643;28;20040;-82
2023/05/27 07:27:37;;;;;;;8.32;3.42;;;14.00;99.90;;;;;;5069611;28;20470;-82
2023/05/27 07:30:03;;;;;;;10.82;3.38;;;14.10;99.90;;;;;;5085835;28;20048;-82
2023/05/27 07:32:28;;;;;;;14.30;4.15;;;14.30;99.90;;;;;;5086596;28;20094;-82
2023/05/27 07:34:56;;;;;;;12.68;3.80;;;15.00;99.90;;;;;;5070006;28;20048;-82
2023/05/27 07:37:23;;;;;;;11.68;3.60;;;14.40;99.90;;;;;;5069094;28;20075;-82
2023/05/27 07:39:50;;;;;;;13.95;3.90;;;14.50;99.90;;;;;;5065425;28;20063;-82
2023/05/27 07:42:17;;;;;;;13.90;3.85;;;14.70;99.90;;;;;;5064481;28;20090;-82
2023/05/27 07:44:42;;;;;;;11.00;3.92;;;14.90;99.90;;;;;;5065635;28;20050;-82
2023/05/27 07:47:08;;;;;;;12.60;4.80;;;15.20;99.90;;;;;;5066175;28;20036;-82
2023/05/27 07:49:33;;;;;;;12.05;3.70;;;15.20;99.90;;;;;;5064892;28;20432;-82
2023/05/27 07:51:59;;;;;;;9.18;3.53;;;15.30;99.90;;;;;;5065886;28;20048;-82
2023/05/27 07:54:26;;;;;;;11.48;4.32;;;15.40;99.90;;;;;;5066591;28;20044;-82
2023/05/27 07:56:52;;;;;;;11.13;4.35;;;15.40;99.90;;;;;;5065938;28;20047;-82
2023/05/27 07:59:18;;;;;;;12.35;4.07;;;15.50;99.90;;;;;;5067277;28;20049;-82
2023/05/27 08:01:43;;;;;;;18.10;4.75;;;15.30;99.90;;;;;;5069089;28;20516;-82
2023/05/27 08:04:09;;;;;;;12.68;4.00;;;15.30;99.90;;;;;;5069934;28;20041;-82
2023/05/27 08:06:35;;;;;;;13.10;4.65;;;15.30;99.90;;;;;;5087170;28;20119;-82
2023/05/27 08:09:04;;;;;;;10.00;3.92;;;15.40;99.90;;;;;;5086150;28;20140;-82
2023/05/27 08:11:31;;;;;;;10.23;3.90;;;15.60;99.90;;;;;;5087046;28;20044;-82
2023/05/27 08:13:56;;;;;;;11.45;4.03;;;15.80;99.90;;;;;;5089251;28;20059;-83
2023/05/27 08:16:22;;;;;;;12.02;4.25;;;15.90;99.90;;;;;;5088835;28;20036;-82
2023/05/27 08:18:48;;;;;;;12.30;4.32;;;16.60;99.90;;;;;;5092293;28;20056;-82
2023/05/27 08:21:14;;;;;;;14.50;4.43;;;16.40;99.90;;;;;;5072996;28;20097;-83
2023/05/27 08:23:40;;;;;;;12.48;4.63;;;16.50;99.90;;;;;;5073676;28;20044;-83
2023/05/27 08:26:05;;;;;;;12.15;4.07;;;16.30;99.90;;;;;;5090790;28;20052;-82
2023/05/27 08:28:34;;;;;;;10.10;3.80;;;16.20;99.20;;;;;;5090220;28;20570;-83
2023/05/27 08:31:00;;;;;;;9.38;3.90;;;16.60;99.40;;;;;;5090526;28;20088;-83
2023/05/27 08:33:26;;;;;;;11.68;3.97;;;16.50;98.90;;;;;;5090309;28;20082;-83
2023/05/27 08:35:52;;;;;;;11.10;4.35;;;17.10;98.10;;;;;;5089385;28;20058;-83
2023/05/27 08:38:17;;;;;;;15.25;4.63;;;16.80;97.80;;;;;;5073562;28;20511;-82
2023/05/27 08:40:44;;;;;;;14.02;5.32;;;16.90;97.30;;;;;;5090593;28;20483;-83
2023/05/27 08:43:09;;;;;;;12.82;4.90;;;16.90;97.20;;;;;;5091257;28;20036;-83
2023/05/27 08:45:36;;;;;;;11.05;4.10;;;17.00;96.80;;;;;;5073531;28;20043;-83
2023/05/27 08:48:02;;;;;;;9.77;4.00;;;17.10;95.90;;;;;;5078020;28;20040;-83
2023/05/27 08:50:28;;;;;;;8.50;4.25;;;17.20;95.80;;;;;;5085129;28;20040;-83
2023/05/27 08:52:54;;;;;;;11.80;4.40;;;17.20;95.30;;;;;;5089320;28;20048;-83
2023/05/27 08:55:21;;;;;;;10.73;4.40;;;17.10;95.20;;;;;;5073055;28;20054;-83
2023/05/27 08:57:54;;;;;;;13.27;4.78;;;17.30;93.80;;;;;;5072917;28;20051;-83
2023/05/27 09:00:20;;;;;;;13.13;4.38;;;17.30;92.50;;;;;;5089267;28;20127;-83
2023/05/27 09:02:46;;;;;;;14.65;4.55;;;17.30;92.80;;;;;;5089872;28;20470;-82
2023/05/27 09:05:13;;;;;;;14.13;4.45;;;17.50;92.40;;;;;;5089119;28;20109;-83
2023/05/27 09:07:39;;;;;;;9.45;4.18;;;17.80;91.90;;;;;;5070865;28;20083;-83
2023/05/27 09:10:06;;;;;;;11.95;4.45;;;17.60;91.30;;;;;;5072646;28;20071;-83
2023/05/27 09:12:33;;;;;;;10.88;4.35;;;17.70;90.90;;;;;;5089077;28;20509;-83
2023/05/27 09:14:58;;;;;;;12.73;4.88;;;18.00;90.40;;;;;;5061363;28;20473;-83
2023/05/27 09:17:24;;;;;;;11.98;4.50;;;17.70;89.30;;;;;;5070606;28;20059;-83
2023/05/27 09:19:54;;;;;;;10.57;4.55;;;17.70;89.00;;;;;;5068521;28;20583;-83
2023/05/27 09:22:24;;;;;;;12.15;4.88;;;17.60;89.00;;;;;;5069324;28;20053;-83
2023/05/27 09:24:53;;;;;;;10.35;4.15;;;17.80;89.40;;;;;;5051315;28;20050;-83
2023/05/27 09:27:19;;;;;;;15.48;5.25;;;17.90;86.00;;;;;;5069918;28;20052;-83
2023/05/27 09:29:44;;;;;;;13.48;4.90;;;17.90;86.60;;;;;;5070903;28;20554;-83
2023/05/27 09:32:10;;;;;;;12.40;4.82;;;17.80;85.50;;;;;;5080879;28;20082;-83
2023/05/27 09:34:39;;;;;;;12.40;4.50;;;18.20;85.70;;;;;;5082691;28;20041;-83
2023/05/27 09:37:05;;;;;;;10.60;4.85;;;17.90;84.90;;;;;;5077442;28;20075;-83
2023/05/27 09:39:34;;;;;;;9.68;4.95;;;17.80;85.60;;;;;;5088011;28;20067;-83
2023/05/27 09:42:01;;;;;;;11.80;4.47;;;18.00;85.00;;;;;;5071415;28;20056;-83
2023/05/27 09:44:40;;;;;;;12.13;4.20;;;18.00;84.40;;;;;;5070763;28;20040;-83
2023/05/27 09:47:11;;;;;;;13.07;4.45;;;18.20;83.80;;;;;;5070873;28;20051;-82
2023/05/27 09:49:37;;;;;;;8.93;4.22;;;18.10;84.10;;;;;;5068678;28;20131;-83
2023/05/27 09:52:05;;;;;;;12.80;4.60;;;18.20;83.80;;;;;;5071591;28;20052;-82
2023/05/27 09:54:32;;;;;;;11.25;4.68;;;18.30;83.00;;;;;;5088680;28;20507;-83
2023/05/27 09:56:58;;;;;;;15.10;4.95;;;18.40;81.90;;;;;;5052262;28;20044;-84
2023/05/27 09:59:25;;;;;;;10.02;4.63;;;18.40;81.30;;;;;;5068581;28;20412;-82
2023/05/27 10:01:51;;;;;;;12.70;4.85;;;18.40;81.30;;;;;;5076010;28;20511;-82
2023/05/27 10:04:17;;;;;;;13.48;4.50;;;18.50;80.70;;;;;;5072045;28;20047;-82
2023/05/27 10:06:45;;;;;;;12.32;4.60;;;18.60;80.60;;;;;;5088064;28;20050;-81
2023/05/27 10:09:12;;;;;;;15.88;5.30;;;18.80;80.00;;;;;;5077141;28;20541;-82
2023/05/27 10:11:40;;;;;;;11.10;4.95;;;18.80;80.30;;;;;;5072934;28;20052;-82
2023/05/27 10:14:06;;;;;;;8.50;4.30;;;19.50;78.90;;;;;;5087304;28;20036;-82
2023/05/27 10:16:34;;;;;;;11.40;4.65;;;19.00;77.30;;;;;;5084712;28;20142;-81
2023/05/27 10:19:00;;;;;;;8.52;4.15;;;19.00;76.60;;;;;;5087498;28;20047;-82
2023/05/27 10:21:31;;;;;;;10.27;4.80;;;19.00;76.20;;;;;;5089061;28;20750;-82
2023/05/27 10:23:57;;;;;;;10.07;5.07;;;19.20;76.10;;;;;;5073954;28;20092;-82
2023/05/27 10:26:39;;;;;;;16.08;5.10;;;19.00;75.70;;;;;;5069930;28;20079;-82
2023/05/27 10:29:06;;;;;;;10.95;4.22;;;18.90;74.90;;;;;;5068970;28;20074;-81
2023/05/27 10:31:32;;;;;;;10.85;4.72;;;18.90;75.50;;;;;;5065695;28;20043;-82
2023/05/27 10:33:57;;;;;;;11.00;4.40;;;18.90;76.00;;;;;;5084273;28;20453;-82
2023/05/27 10:36:28;;;;;;;13.15;4.90;;;19.50;76.70;;;;;;5087289;28;20410;-82
2023/05/27 10:39:18;;;;;;;11.68;4.78;;;19.50;75.50;;;;;;5087816;28;20054;-81
2023/05/27 10:41:48;;;;;;;12.45;4.88;;;19.20;73.30;;;;;;5070120;28;20048;-81
2023/05/27 10:44:32;;;;;;;13.05;4.78;;;19.40;74.60;;;;;;5084781;28;20522;-81
2023/05/27 10:47:13;;;;;;;13.68;4.00;;;19.40;72.20;;;;;;5069524;28;20527;-81
2023/05/27 10:49:40;;;;;;;11.48;4.25;;;19.50;72.70;;;;;;5050493;28;20527;-81
2023/05/27 10:52:12;;;;;;;9.23;4.15;;;19.50;73.00;;;;;;5068467;28;20054;-81
2023/05/27 10:54:38;;;;;;;10.18;4.80;;;19.50;72.50;;;;;;5066854;28;20408;-83
2023/05/27 10:57:04;;;;;;;10.52;4.82;;;19.40;72.40;;;;;;5067601;28;20167;-81
2023/05/27 10:59:37;;;;;;;12.60;4.75;;;19.50;72.80;;;;;;5050021;28;20820;-81
2023/05/27 11:02:05;;;;;;;10.80;4.47;;;19.60;72.20;;;;;;5068727;28;20052;-81
2023/05/27 11:04:37;;;;;;;13.07;4.05;;;19.90;72.60;;;;;;5082904;28;20051;-80
2023/05/27 11:07:03;;;;;;;;;;;20.00;72.10;;;;;;5073992;28;20526;-81
2023/05/27 11:09:29;;;;;;;10.07;3.85;;;20.10;70.80;;;;;;5066801;28;19932;-81
2023/05/27 11:12:05;;;;;;;10.77;4.47;;;20.10;71.40;;;;;;5067499;28;20064;-80
2023/05/27 11:14:30;;;;;;;11.95;4.72;;;20.20;70.60;;;;;;5051183;28;20056;-80
2023/05/27 11:16:56;;;;;;;11.93;4.43;;;20.20;70.70;;;;;;5050665;28;20037;-80
2023/05/27 11:19:22;;;;;;;12.20;4.18;;;20.20;70.30;;;;;;5066749;28;20121;-81
2023/05/27 11:21:48;;;;;;;11.38;4.40;;;20.50;70.90;;;;;;5084567;28;20087;-81
2023/05/27 11:24:18;;;;;;;12.50;4.43;;;20.20;71.10;;;;;;5065953;28;20379;-81
2023/05/27 11:26:47;;;;;;;8.77;3.83;;;20.30;70.40;;;;;;5067660;28;20105;-80
2023/05/27 11:29:14;;;;;;;9.35;3.95;;;20.90;70.20;;;;;;5068248;28;20052;-80
2023/05/27 11:31:40;;;;;;;11.15;4.57;;;20.40;68.80;;;;;;5051589;28;20051;-80
2023/05/27 11:34:18;;;;;;;12.82;4.35;;;20.60;68.10;;;;;;5068439;28;20044;-81
2023/05/27 11:36:45;;;;;;;10.80;4.25;;;21.00;66.50;;;;;;5072373;28;20485;-82
2023/05/27 11:39:16;;;;;;;14.32;4.47;;;20.90;67.10;;;;;;5086256;28;20098;-82
2023/05/27 11:41:52;;;;;;;14.10;4.20;;;20.50;66.10;;;;;;5066905;28;20049;-82
2023/05/27 11:44:22;;;;;;;12.82;4.03;;;20.50;67.00;;;;;;5067804;28;20044;-82
2023/05/27 11:46:49;;;;;;;11.45;4.05;;;20.60;66.40;;;;;;5051279;28;20033;-82
2023/05/27 11:49:17;;;;;;;10.88;4.85;;;20.80;66.20;;;;;;5069173;28;20492;-83
2023/05/27 11:51:47;;;;;;;11.25;4.35;;;20.50;65.70;;;;;;5074264;28;20459;-82
2023/05/27 11:54:21;;;;;;;10.52;4.07;;;20.30;65.80;;;;;;5074496;28;20507;-82
2023/05/27 11:56:48;;;;;;;11.95;4.55;;;20.20;66.40;;;;;;5070379;28;20036;-82
2023/05/27 11:59:14;;;;;;;9.32;3.65;;;20.50;66.90;;;;;;5070237;28;20078;-84
2023/05/27 12:01:44;;;;;;;11.90;4.43;;;20.50;67.40;;;;;;5068411;28;20049;-83
2023/05/27 12:04:10;;;;;;;9.18;4.07;;;20.50;66.20;;;;;;5068544;28;20048;-83
2023/05/27 12:06:43;;;;;;;8.10;3.92;;;20.50;65.90;;;;;;5075464;28;20048;-82
2023/05/27 12:09:10;;;;;;;12.80;3.70;;;21.00;65.90;;;;;;5090117;28;20036;-82
2023/05/27 12:11:37;;;;;;;10.98;4.22;;;20.50;66.90;;;;;;5083552;28;20495;-82
2023/05/27 12:14:03;;;;;;;10.07;4.20;;;20.60;66.10;;;;;;5071642;28;20056;-82
2023/05/27 12:16:31;;;;;;;9.10;4.07;;;20.60;65.60;;;;;;5080088;28;20046;-82
2023/05/27 12:19:00;;;;;;;9.63;4.03;;;20.70;65.60;;;;;;5053240;28;20044;-82
2023/05/27 12:21:26;;;;;;;7.88;3.63;;;20.70;64.80;;;;;;5051845;28;20574;-82
2023/05/27 12:23:52;;;;;;;11.73;4.32;;;20.80;64.60;;;;;;5069758;28;20052;-82
2023/05/27 12:26:17;;;;;;;10.90;4.18;;;20.60;64.60;;;;;;5085612;28;20063;-82
2023/05/27 12:28:44;;;;;;;9.75;4.35;;;20.60;64.60;;;;;;5067629;28;20101;-82
2023/05/27 12:31:10;;;;;;;11.60;4.05;;;21.00;65.30;;;;;;5086202;28;20080;-83
2023/05/27 12:33:36;;;;;;;11.68;4.40;;;20.70;64.60;;;;;;5088395;28;20071;-82
2023/05/27 12:36:02;;;;;;;8.88;4.03;;;20.90;64.50;;;;;;5086903;28;20054;-82
2023/05/27 12:38:28;;;;;;;9.90;4.10;;;20.50;64.90;;;;;;5086720;28;20434;-82
2023/05/27 12:40:56;;;;;;;12.52;5.00;;;20.50;64.90;;;;;;5089972;28;20055;-82
2023/05/27 12:43:22;;;;;;;8.23;3.60;;;20.60;64.90;;;;;;5075046;28;20056;-82